sensor_id;sensor_type;location;lat;lon;timestamp;P1;durP1;ratioP1;P2;durP2;ratioP2
14704;SDS011;7442;50.840;3.396;2023-06-14T00:01:42;5.08;;;4.22;;
14704;SDS011;7442;50.840;3.396;2023-06-14T00:04:30;5.15;;;4.50;;
14704;SDS011;7442;50.840;3.396;2023-06-14T00:07:16;4.75;;;4.10;;
14704;SDS011;7442;50.840;3.396;2023-06-14T00:10:03;4.47;;;4.05;;
14704;SDS011;7442;50.840;3.396;2023-06-14T00:12:49;5.08;;;4.58;;
14704;SDS011;7442;50.840;3.396;2023-06-14T00:15:35;5.50;;;4.30;;
14704;SDS011;7442;50.840;3.396;2023-06-14T00:18:22;4.85;;;4.42;;
14704;SDS011;7442;50.840;3.396;2023-06-14T00:21:12;5.03;;;4.53;;
14704;SDS011;7442;50.840;3.396;2023-06-14T00:23:59;4.50;;;4.08;;
14704;SDS011;7442;50.840;3.396;2023-06-14T00:26:45;4.70;;;4.30;;
14704;SDS011;7442;50.840;3.396;2023-06-14T00:29:31;4.80;;;4.22;;
14704;SDS011;7442;50.840;3.396;2023-06-14T00:32:18;5.05;;;4.20;;
14704;SDS011;7442;50.840;3.396;2023-06-14T00:35:06;4.58;;;4.17;;
14704;SDS011;7442;50.840;3.396;2023-06-14T00:37:52;6.00;;;3.98;;
14704;SDS011;7442;50.840;3.396;2023-06-14T00:40:39;4.72;;;4.22;;
14704;SDS011;7442;50.840;3.396;2023-06-14T00:43:25;4.45;;;4.05;;
14704;SDS011;7442;50.840;3.396;2023-06-14T00:46:12;5.62;;;3.90;;
14704;SDS011;7442;50.840;3.396;2023-06-14T00:48:58;4.80;;;4.05;;
14704;SDS011;7442;50.840;3.396;2023-06-14T00:51:46;5.05;;;4.33;;
14704;SDS011;7442;50.840;3.396;2023-06-14T00:54:32;4.55;;;3.98;;
14704;SDS011;7442;50.840;3.396;2023-06-14T00:57:19;3.85;;;3.55;;
14704;SDS011;7442;50.840;3.396;2023-06-14T01:00:05;4.28;;;3.87;;
14704;SDS011;7442;50.840;3.396;2023-06-14T01:02:54;5.25;;;4.00;;
14704;SDS011;7442;50.840;3.396;2023-06-14T01:05:41;5.35;;;3.70;;
14704;SDS011;7442;50.840;3.396;2023-06-14T01:08:31;4.47;;;4.08;;
14704;SDS011;7442;50.840;3.396;2023-06-14T01:11:27;4.05;;;3.65;;
14704;SDS011;7442;50.840;3.396;2023-06-14T01:14:13;5.08;;;4.12;;
14704;SDS011;7442;50.840;3.396;2023-06-14T01:17:01;4.15;;;3.75;;
14704;SDS011;7442;50.840;3.396;2023-06-14T01:19:47;4.92;;;4.00;;
14704;SDS011;7442;50.840;3.396;2023-06-14T01:22:34;4.55;;;4.10;;
14704;SDS011;7442;50.840;3.396;2023-06-14T01:25:21;4.50;;;4.10;;
14704;SDS011;7442;50.840;3.396;2023-06-14T01:28:09;6.17;;;3.72;;
14704;SDS011;7442;50.840;3.396;2023-06-14T01:30:59;5.22;;;3.58;;
14704;SDS011;7442;50.840;3.396;2023-06-14T01:33:48;4.08;;;3.67;;
14704;SDS011;7442;50.840;3.396;2023-06-14T01:36:36;4.30;;;3.85;;
14704;SDS011;7442;50.840;3.396;2023-06-14T01:39:24;4.70;;;3.45;;
14704;SDS011;7442;50.840;3.396;2023-06-14T01:42:11;4.53;;;3.85;;
14704;SDS011;7442;50.840;3.396;2023-06-14T01:44:59;3.83;;;3.40;;
14704;SDS011;7442;50.840;3.396;2023-06-14T01:47:47;4.30;;;3.77;;
14704;SDS011;7442;50.840;3.396;2023-06-14T01:50:34;4.70;;;3.90;;
14704;SDS011;7442;50.840;3.396;2023-06-14T01:53:20;4.62;;;3.90;;
14704;SDS011;7442;50.840;3.396;2023-06-14T01:56:07;3.75;;;3.42;;
14704;SDS011;7442;50.840;3.396;2023-06-14T01:58:53;4.55;;;3.52;;
14704;SDS011;7442;50.840;3.396;2023-06-14T02:01:40;3.85;;;3.50;;
14704;SDS011;7442;50.840;3.396;2023-06-14T02:04:26;4.78;;;3.80;;
14704;SDS011;7442;50.840;3.396;2023-06-14T02:07:12;3.52;;;3.22;;
14704;SDS011;7442;50.840;3.396;2023-06-14T02:09:59;4.45;;;4.03;;
14704;SDS011;7442;50.840;3.396;2023-06-14T02:12:45;3.70;;;3.40;;
14704;SDS011;7442;50.840;3.396;2023-06-14T02:15:32;4.65;;;3.80;;
14704;SDS011;7442;50.840;3.396;2023-06-14T02:18:21;4.65;;;3.52;;
14704;SDS011;7442;50.840;3.396;2023-06-14T02:21:09;3.80;;;3.37;;
14704;SDS011;7442;50.840;3.396;2023-06-14T02:23:56;4.05;;;3.35;;
14704;SDS011;7442;50.840;3.396;2023-06-14T02:26:42;3.77;;;3.42;;
14704;SDS011;7442;50.840;3.396;2023-06-14T02:29:28;4.17;;;3.60;;
14704;SDS011;7442;50.840;3.396;2023-06-14T02:32:15;4.10;;;3.75;;
14704;SDS011;7442;50.840;3.396;2023-06-14T02:35:01;3.90;;;3.60;;
14704;SDS011;7442;50.840;3.396;2023-06-14T02:37:47;4.35;;;3.75;;
14704;SDS011;7442;50.840;3.396;2023-06-14T02:40:34;3.62;;;3.33;;
14704;SDS011;7442;50.840;3.396;2023-06-14T02:43:20;4.72;;;3.58;;
14704;SDS011;7442;50.840;3.396;2023-06-14T02:46:06;4.15;;;3.72;;
14704;SDS011;7442;50.840;3.396;2023-06-14T02:48:52;4.15;;;3.60;;
14704;SDS011;7442;50.840;3.396;2023-06-14T02:51:39;4.30;;;3.40;;
14704;SDS011;7442;50.840;3.396;2023-06-14T02:54:25;3.42;;;3.10;;
14704;SDS011;7442;50.840;3.396;2023-06-14T02:57:11;3.60;;;3.30;;
14704;SDS011;7442;50.840;3.396;2023-06-14T02:59:57;4.42;;;3.60;;
14704;SDS011;7442;50.840;3.396;2023-06-14T03:02:45;4.58;;;3.50;;
14704;SDS011;7442;50.840;3.396;2023-06-14T03:05:31;3.87;;;3.47;;
14704;SDS011;7442;50.840;3.396;2023-06-14T03:08:17;3.55;;;3.25;;
14704;SDS011;7442;50.840;3.396;2023-06-14T03:11:04;4.22;;;3.52;;
14704;SDS011;7442;50.840;3.396;2023-06-14T03:13:50;4.03;;;3.60;;
14704;SDS011;7442;50.840;3.396;2023-06-14T03:16:37;3.80;;;3.50;;
14704;SDS011;7442;50.840;3.396;2023-06-14T03:19:23;3.80;;;3.40;;
14704;SDS011;7442;50.840;3.396;2023-06-14T03:22:10;3.87;;;3.30;;
14704;SDS011;7442;50.840;3.396;2023-06-14T03:24:57;3.77;;;3.10;;
14704;SDS011;7442;50.840;3.396;2023-06-14T03:27:44;3.45;;;3.15;;
14704;SDS011;7442;50.840;3.396;2023-06-14T03:30:30;4.37;;;3.58;;
14704;SDS011;7442;50.840;3.396;2023-06-14T03:33:17;4.22;;;3.60;;
14704;SDS011;7442;50.840;3.396;2023-06-14T03:36:03;4.37;;;3.20;;
14704;SDS011;7442;50.840;3.396;2023-06-14T03:38:50;3.85;;;3.42;;
14704;SDS011;7442;50.840;3.396;2023-06-14T03:41:36;5.42;;;3.50;;
14704;SDS011;7442;50.840;3.396;2023-06-14T03:44:22;3.52;;;3.22;;
14704;SDS011;7442;50.840;3.396;2023-06-14T03:47:10;4.20;;;3.30;;
14704;SDS011;7442;50.840;3.396;2023-06-14T03:49:56;5.17;;;3.50;;
14704;SDS011;7442;50.840;3.396;2023-06-14T03:52:42;3.98;;;3.55;;
14704;SDS011;7442;50.840;3.396;2023-06-14T03:55:29;3.50;;;3.20;;
14704;SDS011;7442;50.840;3.396;2023-06-14T03:58:18;4.15;;;3.47;;
14704;SDS011;7442;50.840;3.396;2023-06-14T04:01:05;4.12;;;3.72;;
14704;SDS011;7442;50.840;3.396;2023-06-14T04:03:56;3.60;;;3.30;;
14704;SDS011;7442;50.840;3.396;2023-06-14T04:06:42;3.98;;;3.67;;
14704;SDS011;7442;50.840;3.396;2023-06-14T04:09:30;3.92;;;3.50;;
14704;SDS011;7442;50.840;3.396;2023-06-14T04:12:17;5.12;;;3.47;;
14704;SDS011;7442;50.840;3.396;2023-06-14T04:15:03;3.65;;;3.35;;
14704;SDS011;7442;50.840;3.396;2023-06-14T04:17:51;4.58;;;3.85;;
14704;SDS011;7442;50.840;3.396;2023-06-14T04:20:39;3.98;;;3.60;;
14704;SDS011;7442;50.840;3.396;2023-06-14T04:23:25;5.67;;;4.00;;
14704;SDS011;7442;50.840;3.396;2023-06-14T04:26:13;3.95;;;3.33;;
14704;SDS011;7442;50.840;3.396;2023-06-14T04:29:00;5.15;;;3.17;;
14704;SDS011;7442;50.840;3.396;2023-06-14T04:31:46;4.85;;;3.37;;
14704;SDS011;7442;50.840;3.396;2023-06-14T04:34:35;3.62;;;3.33;;
14704;SDS011;7442;50.840;3.396;2023-06-14T04:37:22;3.50;;;3.15;;
14704;SDS011;7442;50.840;3.396;2023-06-14T04:40:09;4.50;;;3.67;;
14704;SDS011;7442;50.840;3.396;2023-06-14T04:42:55;4.85;;;3.58;;
14704;SDS011;7442;50.840;3.396;2023-06-14T04:45:41;3.60;;;3.30;;
14704;SDS011;7442;50.840;3.396;2023-06-14T04:48:29;4.10;;;3.50;;
14704;SDS011;7442;50.840;3.396;2023-06-14T04:51:16;4.03;;;3.62;;
14704;SDS011;7442;50.840;3.396;2023-06-14T04:54:03;3.87;;;3.52;;
14704;SDS011;7442;50.840;3.396;2023-06-14T04:56:51;3.98;;;3.58;;
14704;SDS011;7442;50.840;3.396;2023-06-14T04:59:40;3.87;;;3.55;;
14704;SDS011;7442;50.840;3.396;2023-06-14T05:02:30;5.97;;;3.52;;
14704;SDS011;7442;50.840;3.396;2023-06-14T05:05:16;3.65;;;3.35;;
14704;SDS011;7442;50.840;3.396;2023-06-14T05:08:02;5.80;;;3.58;;
14704;SDS011;7442;50.840;3.396;2023-06-14T05:10:49;4.40;;;3.30;;
14704;SDS011;7442;50.840;3.396;2023-06-14T05:13:35;4.72;;;3.75;;
14704;SDS011;7442;50.840;3.396;2023-06-14T05:16:21;3.67;;;3.37;;
14704;SDS011;7442;50.840;3.396;2023-06-14T05:19:10;5.08;;;3.52;;
14704;SDS011;7442;50.840;3.396;2023-06-14T05:21:56;4.60;;;3.90;;
14704;SDS011;7442;50.840;3.396;2023-06-14T05:24:42;4.17;;;3.22;;
14704;SDS011;7442;50.840;3.396;2023-06-14T05:27:29;13.53;;;6.83;;
14704;SDS011;7442;50.840;3.396;2023-06-14T05:30:16;9.08;;;7.28;;
14704;SDS011;7442;50.840;3.396;2023-06-14T05:33:02;11.78;;;7.20;;
14704;SDS011;7442;50.840;3.396;2023-06-14T05:35:49;12.95;;;6.95;;
14704;SDS011;7442;50.840;3.396;2023-06-14T05:38:35;12.50;;;7.62;;
14704;SDS011;7442;50.840;3.396;2023-06-14T05:41:22;12.58;;;5.70;;
14704;SDS011;7442;50.840;3.396;2023-06-14T05:44:11;8.85;;;6.25;;
14704;SDS011;7442;50.840;3.396;2023-06-14T05:46:57;9.58;;;5.75;;
14704;SDS011;7442;50.840;3.396;2023-06-14T05:49:44;8.50;;;5.78;;
14704;SDS011;7442;50.840;3.396;2023-06-14T05:52:30;9.40;;;6.10;;
14704;SDS011;7442;50.840;3.396;2023-06-14T05:55:17;8.70;;;5.80;;
14704;SDS011;7442;50.840;3.396;2023-06-14T05:58:04;8.15;;;6.08;;
14704;SDS011;7442;50.840;3.396;2023-06-14T06:00:50;12.33;;;6.45;;
14704;SDS011;7442;50.840;3.396;2023-06-14T06:03:37;7.75;;;5.65;;
14704;SDS011;7442;50.840;3.396;2023-06-14T06:06:24;13.03;;;6.97;;
14704;SDS011;7442;50.840;3.396;2023-06-14T06:09:10;12.85;;;5.90;;
14704;SDS011;7442;50.840;3.396;2023-06-14T06:11:58;12.88;;;5.87;;
14704;SDS011;7442;50.840;3.396;2023-06-14T06:14:44;9.48;;;6.20;;
14704;SDS011;7442;50.840;3.396;2023-06-14T06:17:31;10.48;;;5.62;;
14704;SDS011;7442;50.840;3.396;2023-06-14T06:20:17;9.70;;;5.80;;
14704;SDS011;7442;50.840;3.396;2023-06-14T06:23:03;9.20;;;5.70;;
14704;SDS011;7442;50.840;3.396;2023-06-14T06:25:49;8.30;;;5.67;;
14704;SDS011;7442;50.840;3.396;2023-06-14T06:28:36;9.05;;;5.47;;
14704;SDS011;7442;50.840;3.396;2023-06-14T06:31:22;8.48;;;5.90;;
14704;SDS011;7442;50.840;3.396;2023-06-14T06:34:08;13.60;;;6.15;;
14704;SDS011;7442;50.840;3.396;2023-06-14T06:36:55;11.25;;;5.80;;
14704;SDS011;7442;50.840;3.396;2023-06-14T06:39:41;7.28;;;5.87;;
14704;SDS011;7442;50.840;3.396;2023-06-14T06:42:28;10.10;;;6.25;;
14704;SDS011;7442;50.840;3.396;2023-06-14T06:45:15;7.03;;;5.25;;
14704;SDS011;7442;50.840;3.396;2023-06-14T06:48:01;8.25;;;5.70;;
14704;SDS011;7442;50.840;3.396;2023-06-14T06:50:48;14.35;;;5.80;;
14704;SDS011;7442;50.840;3.396;2023-06-14T06:53:35;7.92;;;5.35;;
14704;SDS011;7442;50.840;3.396;2023-06-14T06:56:22;10.50;;;5.58;;
14704;SDS011;7442;50.840;3.396;2023-06-14T06:59:08;8.53;;;5.35;;
14704;SDS011;7442;50.840;3.396;2023-06-14T07:01:55;11.20;;;5.55;;
14704;SDS011;7442;50.840;3.396;2023-06-14T07:04:41;7.80;;;5.25;;
14704;SDS011;7442;50.840;3.396;2023-06-14T07:07:27;8.25;;;5.30;;
14704;SDS011;7442;50.840;3.396;2023-06-14T07:10:13;7.53;;;5.75;;
14704;SDS011;7442;50.840;3.396;2023-06-14T07:13:01;8.00;;;5.37;;
14704;SDS011;7442;50.840;3.396;2023-06-14T07:15:48;12.93;;;6.42;;
14704;SDS011;7442;50.840;3.396;2023-06-14T07:18:34;13.75;;;5.92;;
14704;SDS011;7442;50.840;3.396;2023-06-14T07:21:21;13.18;;;6.20;;
14704;SDS011;7442;50.840;3.396;2023-06-14T07:24:09;14.90;;;6.35;;
14704;SDS011;7442;50.840;3.396;2023-06-14T07:26:56;8.48;;;5.95;;
14704;SDS011;7442;50.840;3.396;2023-06-14T07:29:42;8.15;;;5.22;;
14704;SDS011;7442;50.840;3.396;2023-06-14T07:32:29;10.45;;;5.55;;
14704;SDS011;7442;50.840;3.396;2023-06-14T07:35:15;7.15;;;5.53;;
14704;SDS011;7442;50.840;3.396;2023-06-14T07:38:01;10.88;;;6.03;;
14704;SDS011;7442;50.840;3.396;2023-06-14T07:40:48;10.20;;;5.55;;
14704;SDS011;7442;50.840;3.396;2023-06-14T07:43:34;9.23;;;5.50;;
14704;SDS011;7442;50.840;3.396;2023-06-14T07:46:20;14.60;;;6.30;;
14704;SDS011;7442;50.840;3.396;2023-06-14T07:49:07;9.20;;;5.92;;
14704;SDS011;7442;50.840;3.396;2023-06-14T07:51:55;5.95;;;5.40;;
14704;SDS011;7442;50.840;3.396;2023-06-14T07:54:43;11.05;;;5.55;;
14704;SDS011;7442;50.840;3.396;2023-06-14T07:57:29;10.25;;;5.78;;
14704;SDS011;7442;50.840;3.396;2023-06-14T08:00:15;13.30;;;6.03;;
14704;SDS011;7442;50.840;3.396;2023-06-14T08:03:03;11.35;;;5.87;;
14704;SDS011;7442;50.840;3.396;2023-06-14T08:05:49;10.48;;;5.83;;
14704;SDS011;7442;50.840;3.396;2023-06-14T08:08:35;11.78;;;5.75;;
14704;SDS011;7442;50.840;3.396;2023-06-14T08:11:22;9.73;;;5.60;;
14704;SDS011;7442;50.840;3.396;2023-06-14T08:14:09;9.80;;;5.33;;
14704;SDS011;7442;50.840;3.396;2023-06-14T08:16:55;7.28;;;5.67;;
14704;SDS011;7442;50.840;3.396;2023-06-14T08:19:42;8.65;;;5.87;;
14704;SDS011;7442;50.840;3.396;2023-06-14T08:22:28;6.50;;;5.45;;
14704;SDS011;7442;50.840;3.396;2023-06-14T08:25:16;8.50;;;5.85;;
14704;SDS011;7442;50.840;3.396;2023-06-14T08:28:02;10.82;;;5.40;;
14704;SDS011;7442;50.840;3.396;2023-06-14T08:30:48;6.87;;;4.90;;
14704;SDS011;7442;50.840;3.396;2023-06-14T08:33:35;8.83;;;4.87;;
14704;SDS011;7442;50.840;3.396;2023-06-14T08:36:21;6.35;;;5.53;;
14704;SDS011;7442;50.840;3.396;2023-06-14T08:39:07;7.75;;;5.30;;
14704;SDS011;7442;50.840;3.396;2023-06-14T08:41:53;7.50;;;5.75;;
14704;SDS011;7442;50.840;3.396;2023-06-14T08:44:42;6.55;;;5.42;;
14704;SDS011;7442;50.840;3.396;2023-06-14T08:47:28;7.92;;;5.60;;
14704;SDS011;7442;50.840;3.396;2023-06-14T08:50:16;7.00;;;5.45;;
14704;SDS011;7442;50.840;3.396;2023-06-14T08:53:04;11.80;;;5.30;;
14704;SDS011;7442;50.840;3.396;2023-06-14T08:55:54;4.95;;;4.55;;
14704;SDS011;7442;50.840;3.396;2023-06-14T08:58:46;7.67;;;5.58;;
14704;SDS011;7442;50.840;3.396;2023-06-14T09:01:36;7.22;;;5.03;;
14704;SDS011;7442;50.840;3.396;2023-06-14T09:04:23;7.55;;;5.37;;
14704;SDS011;7442;50.840;3.396;2023-06-14T09:07:10;5.35;;;4.55;;
14704;SDS011;7442;50.840;3.396;2023-06-14T09:10:12;8.35;;;5.33;;
14704;SDS011;7442;50.840;3.396;2023-06-14T09:12:55;9.13;;;5.97;;
14704;SDS011;7442;50.840;3.396;2023-06-14T09:15:41;7.25;;;5.65;;
14704;SDS011;7442;50.840;3.396;2023-06-14T09:18:36;7.70;;;5.40;;
14704;SDS011;7442;50.840;3.396;2023-06-14T09:21:25;10.10;;;5.40;;
14704;SDS011;7442;50.840;3.396;2023-06-14T09:24:13;11.63;;;5.17;;
14704;SDS011;7442;50.840;3.396;2023-06-14T09:26:59;8.90;;;5.28;;
14704;SDS011;7442;50.840;3.396;2023-06-14T09:29:45;6.25;;;5.55;;
14704;SDS011;7442;50.840;3.396;2023-06-14T09:32:31;5.40;;;4.85;;
14704;SDS011;7442;50.840;3.396;2023-06-14T09:35:21;6.60;;;4.83;;
14704;SDS011;7442;50.840;3.396;2023-06-14T09:38:07;9.60;;;5.37;;
14704;SDS011;7442;50.840;3.396;2023-06-14T09:40:58;7.58;;;5.15;;
14704;SDS011;7442;50.840;3.396;2023-06-14T09:43:44;6.90;;;5.15;;
14704;SDS011;7442;50.840;3.396;2023-06-14T09:46:32;7.50;;;5.37;;
14704;SDS011;7442;50.840;3.396;2023-06-14T09:49:19;6.55;;;5.05;;
14704;SDS011;7442;50.840;3.396;2023-06-14T09:52:06;10.43;;;5.28;;
14704;SDS011;7442;50.840;3.396;2023-06-14T09:54:55;8.48;;;5.40;;
14704;SDS011;7442;50.840;3.396;2023-06-14T09:57:43;8.23;;;5.28;;
14704;SDS011;7442;50.840;3.396;2023-06-14T10:00:31;6.60;;;5.20;;
14704;SDS011;7442;50.840;3.396;2023-06-14T10:03:21;9.70;;;5.67;;
14704;SDS011;7442;50.840;3.396;2023-06-14T10:06:08;7.67;;;5.17;;
14704;SDS011;7442;50.840;3.396;2023-06-14T10:08:56;6.50;;;4.97;;
14704;SDS011;7442;50.840;3.396;2023-06-14T10:11:44;6.40;;;5.03;;
14704;SDS011;7442;50.840;3.396;2023-06-14T10:14:31;15.65;;;5.70;;
14704;SDS011;7442;50.840;3.396;2023-06-14T10:17:33;8.45;;;5.55;;
14704;SDS011;7442;50.840;3.396;2023-06-14T10:23:10;7.72;;;5.42;;
14704;SDS011;7442;50.840;3.396;2023-06-14T10:25:57;6.53;;;5.58;;
14704;SDS011;7442;50.840;3.396;2023-06-14T10:28:54;8.05;;;5.42;;
14704;SDS011;7442;50.840;3.396;2023-06-14T10:31:43;6.45;;;5.47;;
14704;SDS011;7442;50.840;3.396;2023-06-14T10:34:34;11.00;;;5.42;;
14704;SDS011;7442;50.840;3.396;2023-06-14T10:37:23;7.45;;;5.53;;
14704;SDS011;7442;50.840;3.396;2023-06-14T10:40:10;12.15;;;5.75;;
14704;SDS011;7442;50.840;3.396;2023-06-14T10:42:59;13.72;;;5.50;;
14704;SDS011;7442;50.840;3.396;2023-06-14T10:49:06;9.35;;;5.28;;
14704;SDS011;7442;50.840;3.396;2023-06-14T10:51:53;9.40;;;5.58;;
14704;SDS011;7442;50.840;3.396;2023-06-14T10:54:55;7.33;;;5.25;;
14704;SDS011;7442;50.840;3.396;2023-06-14T10:57:46;7.30;;;5.60;;
14704;SDS011;7442;50.840;3.396;2023-06-14T11:00:35;13.55;;;5.60;;
14704;SDS011;7442;50.840;3.396;2023-06-14T11:03:35;10.93;;;5.40;;
14704;SDS011;7442;50.840;3.396;2023-06-14T11:06:33;7.17;;;5.50;;
14704;SDS011;7442;50.840;3.396;2023-06-14T11:12:32;9.68;;;5.50;;
14704;SDS011;7442;50.840;3.396;2023-06-14T11:15:20;7.33;;;5.20;;
14704;SDS011;7442;50.840;3.396;2023-06-14T11:18:08;8.80;;;6.03;;
14704;SDS011;7442;50.840;3.396;2023-06-14T11:20:54;12.73;;;5.60;;
14704;SDS011;7442;50.840;3.396;2023-06-14T11:23:41;8.50;;;5.33;;
14704;SDS011;7442;50.840;3.396;2023-06-14T11:26:32;13.43;;;5.58;;
14704;SDS011;7442;50.840;3.396;2023-06-14T11:29:15;13.65;;;5.53;;
14704;SDS011;7442;50.840;3.396;2023-06-14T11:32:02;11.25;;;5.80;;
14704;SDS011;7442;50.840;3.396;2023-06-14T11:34:50;8.75;;;5.70;;
14704;SDS011;7442;50.840;3.396;2023-06-14T11:37:36;7.92;;;5.60;;
14704;SDS011;7442;50.840;3.396;2023-06-14T11:40:26;16.02;;;6.00;;
14704;SDS011;7442;50.840;3.396;2023-06-14T11:43:13;8.00;;;5.30;;
14704;SDS011;7442;50.840;3.396;2023-06-14T11:45:59;6.62;;;5.47;;
14704;SDS011;7442;50.840;3.396;2023-06-14T11:48:46;8.63;;;6.10;;
14704;SDS011;7442;50.840;3.396;2023-06-14T11:51:33;6.08;;;5.47;;
14704;SDS011;7442;50.840;3.396;2023-06-14T11:54:19;7.62;;;5.62;;
14704;SDS011;7442;50.840;3.396;2023-06-14T11:57:11;8.63;;;5.67;;
14704;SDS011;7442;50.840;3.396;2023-06-14T11:59:58;8.20;;;5.83;;
14704;SDS011;7442;50.840;3.396;2023-06-14T12:02:51;9.88;;;6.33;;
14704;SDS011;7442;50.840;3.396;2023-06-14T12:05:40;8.23;;;5.55;;
14704;SDS011;7442;50.840;3.396;2023-06-14T12:08:31;10.30;;;5.45;;
14704;SDS011;7442;50.840;3.396;2023-06-14T12:11:19;6.87;;;5.28;;
14704;SDS011;7442;50.840;3.396;2023-06-14T12:14:06;9.98;;;5.83;;
14704;SDS011;7442;50.840;3.396;2023-06-14T12:17:03;9.63;;;5.65;;
14704;SDS011;7442;50.840;3.396;2023-06-14T12:19:43;10.98;;;6.12;;
14704;SDS011;7442;50.840;3.396;2023-06-14T12:22:31;7.12;;;5.03;;
14704;SDS011;7442;50.840;3.396;2023-06-14T12:25:27;7.92;;;5.67;;
14704;SDS011;7442;50.840;3.396;2023-06-14T12:28:22;9.15;;;5.65;;
14704;SDS011;7442;50.840;3.396;2023-06-14T12:31:15;8.70;;;5.92;;
14704;SDS011;7442;50.840;3.396;2023-06-14T12:34:03;12.98;;;6.30;;
14704;SDS011;7442;50.840;3.396;2023-06-14T12:36:50;20.77;;;6.70;;
14704;SDS011;7442;50.840;3.396;2023-06-14T12:39:37;19.92;;;6.30;;
14704;SDS011;7442;50.840;3.396;2023-06-14T12:42:24;10.78;;;6.05;;
14704;SDS011;7442;50.840;3.396;2023-06-14T12:45:10;10.60;;;6.05;;
14704;SDS011;7442;50.840;3.396;2023-06-14T12:47:57;8.05;;;5.67;;
14704;SDS011;7442;50.840;3.396;2023-06-14T12:50:43;14.63;;;5.55;;
14704;SDS011;7442;50.840;3.396;2023-06-14T12:53:29;14.18;;;5.87;;
14704;SDS011;7442;50.840;3.396;2023-06-14T12:56:15;8.83;;;5.95;;
14704;SDS011;7442;50.840;3.396;2023-06-14T12:59:02;9.13;;;6.05;;
14704;SDS011;7442;50.840;3.396;2023-06-14T13:01:48;13.88;;;5.50;;
14704;SDS011;7442;50.840;3.396;2023-06-14T13:04:35;10.40;;;5.80;;
14704;SDS011;7442;50.840;3.396;2023-06-14T13:07:21;8.75;;;5.85;;
14704;SDS011;7442;50.840;3.396;2023-06-14T13:10:08;8.73;;;6.15;;
14704;SDS011;7442;50.840;3.396;2023-06-14T13:12:54;9.95;;;5.87;;
14704;SDS011;7442;50.840;3.396;2023-06-14T13:15:42;6.85;;;5.83;;
14704;SDS011;7442;50.840;3.396;2023-06-14T13:18:30;9.70;;;5.22;;
14704;SDS011;7442;50.840;3.396;2023-06-14T13:21:16;8.13;;;5.67;;
14704;SDS011;7442;50.840;3.396;2023-06-14T13:24:04;7.10;;;5.80;;
14704;SDS011;7442;50.840;3.396;2023-06-14T13:26:51;8.53;;;6.15;;
14704;SDS011;7442;50.840;3.396;2023-06-14T13:29:37;9.88;;;6.08;;
14704;SDS011;7442;50.840;3.396;2023-06-14T13:32:23;8.18;;;5.75;;
14704;SDS011;7442;50.840;3.396;2023-06-14T13:35:09;8.18;;;5.47;;
14704;SDS011;7442;50.840;3.396;2023-06-14T13:37:55;8.15;;;5.72;;
14704;SDS011;7442;50.840;3.396;2023-06-14T13:40:42;11.68;;;5.30;;
14704;SDS011;7442;50.840;3.396;2023-06-14T13:43:28;9.03;;;5.90;;
14704;SDS011;7442;50.840;3.396;2023-06-14T13:46:14;9.13;;;5.53;;
14704;SDS011;7442;50.840;3.396;2023-06-14T13:49:02;12.23;;;5.58;;
14704;SDS011;7442;50.840;3.396;2023-06-14T13:51:49;8.00;;;5.35;;
14704;SDS011;7442;50.840;3.396;2023-06-14T13:54:36;9.80;;;5.47;;
14704;SDS011;7442;50.840;3.396;2023-06-14T13:57:23;9.13;;;5.75;;
14704;SDS011;7442;50.840;3.396;2023-06-14T14:00:10;9.90;;;5.42;;
14704;SDS011;7442;50.840;3.396;2023-06-14T14:02:57;7.12;;;5.42;;
14704;SDS011;7442;50.840;3.396;2023-06-14T14:05:44;8.43;;;5.53;;
14704;SDS011;7442;50.840;3.396;2023-06-14T14:08:30;8.83;;;5.40;;
14704;SDS011;7442;50.840;3.396;2023-06-14T14:11:17;8.50;;;5.25;;
14704;SDS011;7442;50.840;3.396;2023-06-14T14:14:04;8.33;;;5.33;;
14704;SDS011;7442;50.840;3.396;2023-06-14T14:16:53;10.43;;;5.72;;
14704;SDS011;7442;50.840;3.396;2023-06-14T14:19:39;10.68;;;5.42;;
14704;SDS011;7442;50.840;3.396;2023-06-14T14:22:26;9.78;;;5.25;;
14704;SDS011;7442;50.840;3.396;2023-06-14T14:25:12;8.78;;;5.20;;
14704;SDS011;7442;50.840;3.396;2023-06-14T14:27:58;7.05;;;5.12;;
14704;SDS011;7442;50.840;3.396;2023-06-14T14:30:44;10.93;;;5.12;;
14704;SDS011;7442;50.840;3.396;2023-06-14T14:33:32;10.70;;;5.40;;
14704;SDS011;7442;50.840;3.396;2023-06-14T14:36:19;7.35;;;5.53;;
14704;SDS011;7442;50.840;3.396;2023-06-14T14:39:05;6.72;;;5.78;;
14704;SDS011;7442;50.840;3.396;2023-06-14T14:41:51;10.30;;;5.40;;
14704;SDS011;7442;50.840;3.396;2023-06-14T14:44:38;10.32;;;6.03;;
14704;SDS011;7442;50.840;3.396;2023-06-14T14:47:24;10.95;;;5.67;;
14704;SDS011;7442;50.840;3.396;2023-06-14T14:50:10;7.55;;;5.50;;
14704;SDS011;7442;50.840;3.396;2023-06-14T14:52:57;14.93;;;5.53;;
14704;SDS011;7442;50.840;3.396;2023-06-14T14:55:43;11.35;;;5.65;;
14704;SDS011;7442;50.840;3.396;2023-06-14T14:58:30;12.53;;;5.55;;
14704;SDS011;7442;50.840;3.396;2023-06-14T15:01:16;7.37;;;5.15;;
14704;SDS011;7442;50.840;3.396;2023-06-14T15:04:03;9.38;;;5.03;;
14704;SDS011;7442;50.840;3.396;2023-06-14T15:06:55;15.58;;;5.55;;
14704;SDS011;7442;50.840;3.396;2023-06-14T15:09:42;9.78;;;5.75;;
14704;SDS011;7442;50.840;3.396;2023-06-14T15:12:28;10.15;;;5.37;;
14704;SDS011;7442;50.840;3.396;2023-06-14T15:15:14;10.43;;;5.22;;
14704;SDS011;7442;50.840;3.396;2023-06-14T15:18:01;12.23;;;5.42;;
14704;SDS011;7442;50.840;3.396;2023-06-14T15:20:47;9.28;;;5.12;;
14704;SDS011;7442;50.840;3.396;2023-06-14T15:23:48;9.30;;;5.10;;
14704;SDS011;7442;50.840;3.396;2023-06-14T15:26:35;8.08;;;5.67;;
14704;SDS011;7442;50.840;3.396;2023-06-14T15:29:22;10.95;;;5.45;;
14704;SDS011;7442;50.840;3.396;2023-06-14T15:32:08;10.90;;;5.35;;
14704;SDS011;7442;50.840;3.396;2023-06-14T15:34:55;7.40;;;5.00;;
14704;SDS011;7442;50.840;3.396;2023-06-14T15:37:41;6.55;;;4.67;;
14704;SDS011;7442;50.840;3.396;2023-06-14T15:40:27;8.45;;;4.70;;
14704;SDS011;7442;50.840;3.396;2023-06-14T15:43:14;7.55;;;4.60;;
14704;SDS011;7442;50.840;3.396;2023-06-14T15:46:00;12.13;;;5.08;;
14704;SDS011;7442;50.840;3.396;2023-06-14T15:48:47;10.68;;;4.92;;
14704;SDS011;7442;50.840;3.396;2023-06-14T15:51:33;11.15;;;5.47;;
14704;SDS011;7442;50.840;3.396;2023-06-14T15:54:19;7.22;;;4.72;;
14704;SDS011;7442;50.840;3.396;2023-06-14T15:57:05;8.20;;;4.78;;
14704;SDS011;7442;50.840;3.396;2023-06-14T15:59:54;11.20;;;5.20;;
14704;SDS011;7442;50.840;3.396;2023-06-14T16:02:40;11.63;;;4.78;;
14704;SDS011;7442;50.840;3.396;2023-06-14T16:05:27;8.03;;;4.42;;
14704;SDS011;7442;50.840;3.396;2023-06-14T16:08:13;7.80;;;4.45;;
14704;SDS011;7442;50.840;3.396;2023-06-14T16:10:59;5.97;;;4.72;;
14704;SDS011;7442;50.840;3.396;2023-06-14T16:13:45;7.75;;;4.45;;
14704;SDS011;7442;50.840;3.396;2023-06-14T16:16:32;10.30;;;4.53;;
14704;SDS011;7442;50.840;3.396;2023-06-14T16:19:18;8.43;;;4.40;;
14704;SDS011;7442;50.840;3.396;2023-06-14T16:22:04;7.40;;;4.50;;
14704;SDS011;7442;50.840;3.396;2023-06-14T16:24:52;5.30;;;4.15;;
14704;SDS011;7442;50.840;3.396;2023-06-14T16:27:38;5.92;;;4.60;;
14704;SDS011;7442;50.840;3.396;2023-06-14T16:30:25;8.28;;;4.58;;
14704;SDS011;7442;50.840;3.396;2023-06-14T16:33:11;5.75;;;4.00;;
14704;SDS011;7442;50.840;3.396;2023-06-14T16:35:57;8.13;;;4.00;;
14704;SDS011;7442;50.840;3.396;2023-06-14T16:38:43;4.65;;;4.12;;
14704;SDS011;7442;50.840;3.396;2023-06-14T16:41:29;4.20;;;3.80;;
14704;SDS011;7442;50.840;3.396;2023-06-14T16:44:16;7.83;;;4.47;;
14704;SDS011;7442;50.840;3.396;2023-06-14T16:47:03;5.22;;;4.00;;
14704;SDS011;7442;50.840;3.396;2023-06-14T16:49:50;5.03;;;3.65;;
14704;SDS011;7442;50.840;3.396;2023-06-14T16:52:36;6.85;;;4.08;;
14704;SDS011;7442;50.840;3.396;2023-06-14T16:55:23;4.10;;;3.70;;
14704;SDS011;7442;50.840;3.396;2023-06-14T16:58:09;4.87;;;3.70;;
14704;SDS011;7442;50.840;3.396;2023-06-14T17:00:55;6.55;;;3.77;;
14704;SDS011;7442;50.840;3.396;2023-06-14T17:03:41;4.58;;;3.20;;
14704;SDS011;7442;50.840;3.396;2023-06-14T17:06:28;4.03;;;3.58;;
14704;SDS011;7442;50.840;3.396;2023-06-14T17:09:15;4.05;;;3.40;;